sensor_id;sensor_type;location;lat;lon;timestamp;P1;durP1;ratioP1;P2;durP2;ratioP2
52734;SDS011;38631;47.572;10.704;2024-03-22T00:00:04;14.97;;;7.23;;
52734;SDS011;38631;47.572;10.704;2024-03-22T00:02:30;10.55;;;6.30;;
52734;SDS011;38631;47.572;10.704;2024-03-22T00:04:55;11.10;;;6.17;;
52734;SDS011;38631;47.572;10.704;2024-03-22T00:07:22;13.50;;;7.93;;
52734;SDS011;38631;47.572;10.704;2024-03-22T00:09:47;10.68;;;6.90;;
52734;SDS011;38631;47.572;10.704;2024-03-22T00:12:12;12.10;;;7.50;;
52734;SDS011;38631;47.572;10.704;2024-03-22T00:14:38;12.10;;;7.23;;
52734;SDS011;38631;47.572;10.704;2024-03-22T00:17:03;14.80;;;7.30;;
52734;SDS011;38631;47.572;10.704;2024-03-22T00:19:28;12.37;;;7.00;;
52734;SDS011;38631;47.572;10.704;2024-03-22T00:21:53;11.23;;;7.40;;
52734;SDS011;38631;47.572;10.704;2024-03-22T00:24:18;12.03;;;7.23;;
52734;SDS011;38631;47.572;10.704;2024-03-22T00:26:43;11.40;;;7.87;;
52734;SDS011;38631;47.572;10.704;2024-03-22T00:29:09;13.83;;;8.33;;
52734;SDS011;38631;47.572;10.704;2024-03-22T00:31:34;14.10;;;8.63;;
52734;SDS011;38631;47.572;10.704;2024-03-22T00:33:59;10.07;;;7.60;;
52734;SDS011;38631;47.572;10.704;2024-03-22T00:36:24;12.63;;;7.67;;
52734;SDS011;38631;47.572;10.704;2024-03-22T00:41:52;12.98;;;7.78;;
52734;SDS011;38631;47.572;10.704;2024-03-22T00:44:17;11.53;;;7.20;;
52734;SDS011;38631;47.572;10.704;2024-03-22T00:46:42;12.20;;;7.80;;
52734;SDS011;38631;47.572;10.704;2024-03-22T00:49:08;11.90;;;7.73;;
52734;SDS011;38631;47.572;10.704;2024-03-22T00:51:33;12.40;;;7.60;;
52734;SDS011;38631;47.572;10.704;2024-03-22T00:53:58;10.10;;;6.90;;
52734;SDS011;38631;47.572;10.704;2024-03-22T00:56:23;9.43;;;7.07;;
52734;SDS011;38631;47.572;10.704;2024-03-22T00:58:48;10.53;;;7.57;;
52734;SDS011;38631;47.572;10.704;2024-03-22T01:01:16;14.63;;;6.90;;
52734;SDS011;38631;47.572;10.704;2024-03-22T01:03:59;8.82;;;6.57;;
52734;SDS011;38631;47.572;10.704;2024-03-22T01:06:24;10.02;;;6.65;;
52734;SDS011;38631;47.572;10.704;2024-03-22T01:08:52;11.25;;;7.03;;
52734;SDS011;38631;47.572;10.704;2024-03-22T01:11:17;8.47;;;6.57;;
52734;SDS011;38631;47.572;10.704;2024-03-22T01:13:42;9.40;;;6.82;;
52734;SDS011;38631;47.572;10.704;2024-03-22T01:16:08;12.63;;;7.37;;
52734;SDS011;38631;47.572;10.704;2024-03-22T01:18:34;9.40;;;6.72;;
52734;SDS011;38631;47.572;10.704;2024-03-22T01:20:59;11.80;;;7.70;;
52734;SDS011;38631;47.572;10.704;2024-03-22T01:23:25;11.10;;;7.63;;
52734;SDS011;38631;47.572;10.704;2024-03-22T01:25:50;13.77;;;7.27;;
52734;SDS011;38631;47.572;10.704;2024-03-22T01:28:15;9.60;;;6.57;;
52734;SDS011;38631;47.572;10.704;2024-03-22T01:30:42;12.43;;;6.90;;
52734;SDS011;38631;47.572;10.704;2024-03-22T01:33:08;12.23;;;7.18;;
52734;SDS011;38631;47.572;10.704;2024-03-22T01:35:33;10.30;;;6.95;;
52734;SDS011;38631;47.572;10.704;2024-03-22T01:37:58;10.73;;;7.27;;
52734;SDS011;38631;47.572;10.704;2024-03-22T01:40:23;9.70;;;7.20;;
52734;SDS011;38631;47.572;10.704;2024-03-22T02:01:35;11.82;;;6.97;;
52734;SDS011;38631;47.572;10.704;2024-03-22T02:04:01;9.63;;;7.13;;
52734;SDS011;38631;47.572;10.704;2024-03-22T02:06:26;10.07;;;7.55;;
52734;SDS011;38631;47.572;10.704;2024-03-22T02:08:51;10.60;;;7.45;;
52734;SDS011;38631;47.572;10.704;2024-03-22T02:11:17;12.15;;;7.07;;
52734;SDS011;38631;47.572;10.704;2024-03-22T02:13:42;14.48;;;7.57;;
52734;SDS011;38631;47.572;10.704;2024-03-22T02:16:10;12.05;;;7.40;;
52734;SDS011;38631;47.572;10.704;2024-03-22T02:18:35;9.38;;;6.82;;
52734;SDS011;38631;47.572;10.704;2024-03-22T02:21:01;10.73;;;6.53;;
52734;SDS011;38631;47.572;10.704;2024-03-22T02:23:35;15.53;;;7.30;;
52734;SDS011;38631;47.572;10.704;2024-03-22T02:26:01;11.20;;;6.63;;
52734;SDS011;38631;47.572;10.704;2024-03-22T02:28:30;9.32;;;6.93;;
52734;SDS011;38631;47.572;10.704;2024-03-22T02:30:55;12.95;;;8.05;;
52734;SDS011;38631;47.572;10.704;2024-03-22T02:33:20;11.93;;;7.45;;
52734;SDS011;38631;47.572;10.704;2024-03-22T02:35:46;15.33;;;7.97;;
52734;SDS011;38631;47.572;10.704;2024-03-22T02:38:11;14.95;;;8.77;;
52734;SDS011;38631;47.572;10.704;2024-03-22T02:40:37;11.73;;;7.97;;
52734;SDS011;38631;47.572;10.704;2024-03-22T02:43:02;9.93;;;7.13;;
52734;SDS011;38631;47.572;10.704;2024-03-22T02:45:27;10.37;;;7.13;;
52734;SDS011;38631;47.572;10.704;2024-03-22T02:47:52;11.37;;;7.50;;
52734;SDS011;38631;47.572;10.704;2024-03-22T02:52:55;13.38;;;8.43;;
52734;SDS011;38631;47.572;10.704;2024-03-22T02:55:35;12.20;;;7.77;;
52734;SDS011;38631;47.572;10.704;2024-03-22T02:58:00;12.05;;;7.65;;
52734;SDS011;38631;47.572;10.704;2024-03-22T03:00:26;11.80;;;7.37;;
52734;SDS011;38631;47.572;10.704;2024-03-22T03:02:51;10.43;;;7.60;;
52734;SDS011;38631;47.572;10.704;2024-03-22T03:05:16;10.67;;;7.13;;
52734;SDS011;38631;47.572;10.704;2024-03-22T03:07:41;10.93;;;7.33;;
52734;SDS011;38631;47.572;10.704;2024-03-22T03:10:07;12.70;;;7.20;;
52734;SDS011;38631;47.572;10.704;2024-03-22T03:12:33;10.57;;;7.20;;
52734;SDS011;38631;47.572;10.704;2024-03-22T03:14:58;9.53;;;7.00;;
52734;SDS011;38631;47.572;10.704;2024-03-22T03:17:31;9.77;;;7.03;;
52734;SDS011;38631;47.572;10.704;2024-03-22T03:19:56;9.27;;;5.75;;
52734;SDS011;38631;47.572;10.704;2024-03-22T03:22:22;9.53;;;5.70;;
52734;SDS011;38631;47.572;10.704;2024-03-22T03:24:47;6.80;;;4.80;;
52734;SDS011;38631;47.572;10.704;2024-03-22T03:27:12;6.20;;;4.63;;
52734;SDS011;38631;47.572;10.704;2024-03-22T03:29:48;8.20;;;3.60;;
52734;SDS011;38631;47.572;10.704;2024-03-22T03:32:13;7.63;;;3.70;;
52734;SDS011;38631;47.572;10.704;2024-03-22T03:34:38;7.77;;;5.10;;
52734;SDS011;38631;47.572;10.704;2024-03-22T03:37:04;5.15;;;3.80;;
52734;SDS011;38631;47.572;10.704;2024-03-22T03:39:29;5.07;;;2.97;;
52734;SDS011;38631;47.572;10.704;2024-03-22T03:41:54;5.82;;;3.42;;
52734;SDS011;38631;47.572;10.704;2024-03-22T03:44:19;5.93;;;3.88;;
52734;SDS011;38631;47.572;10.704;2024-03-22T03:46:44;7.13;;;3.67;;
52734;SDS011;38631;47.572;10.704;2024-03-22T03:49:10;5.33;;;3.57;;
52734;SDS011;38631;47.572;10.704;2024-03-22T03:51:35;6.22;;;2.75;;
52734;SDS011;38631;47.572;10.704;2024-03-22T03:54:00;4.50;;;3.50;;
52734;SDS011;38631;47.572;10.704;2024-03-22T03:56:25;8.80;;;5.70;;
52734;SDS011;38631;47.572;10.704;2024-03-22T03:58:50;12.87;;;6.97;;
52734;SDS011;38631;47.572;10.704;2024-03-22T04:01:16;14.53;;;9.10;;
52734;SDS011;38631;47.572;10.704;2024-03-22T04:03:43;13.20;;;7.60;;
52734;SDS011;38631;47.572;10.704;2024-03-22T04:06:08;14.10;;;9.40;;
52734;SDS011;38631;47.572;10.704;2024-03-22T04:08:33;14.47;;;8.50;;
52734;SDS011;38631;47.572;10.704;2024-03-22T04:10:59;12.73;;;7.57;;
52734;SDS011;38631;47.572;10.704;2024-03-22T04:13:24;12.05;;;5.82;;
52734;SDS011;38631;47.572;10.704;2024-03-22T04:15:50;10.20;;;5.60;;
52734;SDS011;38631;47.572;10.704;2024-03-22T04:18:15;8.93;;;5.68;;
52734;SDS011;38631;47.572;10.704;2024-03-22T04:20:40;7.70;;;5.30;;
52734;SDS011;38631;47.572;10.704;2024-03-22T04:23:05;8.98;;;6.20;;
52734;SDS011;38631;47.572;10.704;2024-03-22T04:25:36;10.90;;;6.57;;
52734;SDS011;38631;47.572;10.704;2024-03-22T04:28:01;10.20;;;7.32;;
52734;SDS011;38631;47.572;10.704;2024-03-22T04:30:26;10.60;;;7.07;;
52734;SDS011;38631;47.572;10.704;2024-03-22T04:32:52;8.83;;;7.00;;
52734;SDS011;38631;47.572;10.704;2024-03-22T04:35:17;10.65;;;6.50;;
52734;SDS011;38631;47.572;10.704;2024-03-22T04:37:43;43.80;;;11.20;;
52734;SDS011;38631;47.572;10.704;2024-03-22T04:40:08;11.17;;;7.77;;
52734;SDS011;38631;47.572;10.704;2024-03-22T04:42:34;9.05;;;5.80;;
52734;SDS011;38631;47.572;10.704;2024-03-22T04:45:00;8.83;;;5.40;;
52734;SDS011;38631;47.572;10.704;2024-03-22T04:47:25;10.15;;;5.55;;
52734;SDS011;38631;47.572;10.704;2024-03-22T04:49:50;6.83;;;5.00;;
52734;SDS011;38631;47.572;10.704;2024-03-22T04:52:15;9.75;;;4.95;;
52734;SDS011;38631;47.572;10.704;2024-03-22T04:54:41;10.00;;;5.05;;
52734;SDS011;38631;47.572;10.704;2024-03-22T04:57:06;9.07;;;5.97;;
52734;SDS011;38631;47.572;10.704;2024-03-22T04:59:31;10.83;;;7.23;;
52734;SDS011;38631;47.572;10.704;2024-03-22T05:01:56;9.90;;;8.03;;
52734;SDS011;38631;47.572;10.704;2024-03-22T05:04:22;13.13;;;8.80;;
52734;SDS011;38631;47.572;10.704;2024-03-22T05:06:47;10.67;;;7.97;;
52734;SDS011;38631;47.572;10.704;2024-03-22T05:09:12;10.83;;;6.40;;
52734;SDS011;38631;47.572;10.704;2024-03-22T05:11:37;9.80;;;6.90;;
52734;SDS011;38631;47.572;10.704;2024-03-22T05:14:02;8.40;;;6.00;;
52734;SDS011;38631;47.572;10.704;2024-03-22T05:16:28;9.15;;;5.05;;
52734;SDS011;38631;47.572;10.704;2024-03-22T05:18:53;6.90;;;5.10;;
52734;SDS011;38631;47.572;10.704;2024-03-22T05:21:18;7.80;;;5.03;;
52734;SDS011;38631;47.572;10.704;2024-03-22T05:23:43;6.43;;;5.10;;
52734;SDS011;38631;47.572;10.704;2024-03-22T05:26:09;5.70;;;4.20;;
52734;SDS011;38631;47.572;10.704;2024-03-22T05:28:34;4.50;;;3.60;;
52734;SDS011;38631;47.572;10.704;2024-03-22T05:30:59;5.80;;;4.03;;
52734;SDS011;38631;47.572;10.704;2024-03-22T05:33:24;17.57;;;9.20;;
52734;SDS011;38631;47.572;10.704;2024-03-22T05:35:49;16.97;;;9.27;;
52734;SDS011;38631;47.572;10.704;2024-03-22T05:38:14;9.10;;;4.23;;
52734;SDS011;38631;47.572;10.704;2024-03-22T05:40:40;5.47;;;3.00;;
52734;SDS011;38631;47.572;10.704;2024-03-22T05:43:15;4.78;;;2.95;;
52734;SDS011;38631;47.572;10.704;2024-03-22T05:45:46;5.00;;;3.13;;
52734;SDS011;38631;47.572;10.704;2024-03-22T05:48:11;3.92;;;2.72;;
52734;SDS011;38631;47.572;10.704;2024-03-22T05:50:36;7.37;;;3.83;;
52734;SDS011;38631;47.572;10.704;2024-03-22T05:53:01;4.83;;;3.20;;
52734;SDS011;38631;47.572;10.704;2024-03-22T05:55:27;7.50;;;4.83;;
52734;SDS011;38631;47.572;10.704;2024-03-22T05:57:56;4.32;;;3.50;;
52734;SDS011;38631;47.572;10.704;2024-03-22T06:00:21;6.13;;;3.20;;
52734;SDS011;38631;47.572;10.704;2024-03-22T06:02:46;5.63;;;3.60;;
52734;SDS011;38631;47.572;10.704;2024-03-22T06:05:11;7.10;;;3.27;;
52734;SDS011;38631;47.572;10.704;2024-03-22T06:07:37;4.65;;;3.00;;
52734;SDS011;38631;47.572;10.704;2024-03-22T06:10:07;4.47;;;3.25;;
52734;SDS011;38631;47.572;10.704;2024-03-22T06:12:32;4.80;;;2.97;;
52734;SDS011;38631;47.572;10.704;2024-03-22T06:14:59;4.50;;;3.33;;
52734;SDS011;38631;47.572;10.704;2024-03-22T06:17:24;5.15;;;3.38;;
52734;SDS011;38631;47.572;10.704;2024-03-22T06:19:50;5.43;;;3.63;;
52734;SDS011;38631;47.572;10.704;2024-03-22T06:22:15;3.83;;;2.90;;
52734;SDS011;38631;47.572;10.704;2024-03-22T06:24:40;4.33;;;3.13;;
52734;SDS011;38631;47.572;10.704;2024-03-22T06:27:05;5.40;;;3.57;;
52734;SDS011;38631;47.572;10.704;2024-03-22T06:29:30;8.00;;;4.22;;
52734;SDS011;38631;47.572;10.704;2024-03-22T06:31:55;7.30;;;3.97;;
52734;SDS011;38631;47.572;10.704;2024-03-22T06:34:21;5.70;;;3.70;;
52734;SDS011;38631;47.572;10.704;2024-03-22T06:36:46;6.17;;;3.40;;
52734;SDS011;38631;47.572;10.704;2024-03-22T06:39:12;4.75;;;3.60;;
52734;SDS011;38631;47.572;10.704;2024-03-22T06:41:37;8.53;;;3.73;;
52734;SDS011;38631;47.572;10.704;2024-03-22T06:46:53;4.78;;;2.72;;
52734;SDS011;38631;47.572;10.704;2024-03-22T06:52:07;3.60;;;1.77;;
52734;SDS011;38631;47.572;10.704;2024-03-22T06:54:32;5.77;;;2.03;;
52734;SDS011;38631;47.572;10.704;2024-03-22T06:56:57;3.93;;;2.30;;
52734;SDS011;38631;47.572;10.704;2024-03-22T06:59:23;5.87;;;2.03;;
52734;SDS011;38631;47.572;10.704;2024-03-22T07:01:48;3.30;;;2.10;;
52734;SDS011;38631;47.572;10.704;2024-03-22T07:04:14;6.50;;;1.90;;
52734;SDS011;38631;47.572;10.704;2024-03-22T07:06:39;1.88;;;1.50;;
52734;SDS011;38631;47.572;10.704;2024-03-22T07:09:04;4.73;;;1.53;;
52734;SDS011;38631;47.572;10.704;2024-03-22T07:11:32;3.78;;;2.20;;
52734;SDS011;38631;47.572;10.704;2024-03-22T07:13:58;1.98;;;1.20;;
52734;SDS011;38631;47.572;10.704;2024-03-22T07:16:23;3.17;;;1.30;;
52734;SDS011;38631;47.572;10.704;2024-03-22T07:18:48;2.97;;;1.50;;
52734;SDS011;38631;47.572;10.704;2024-03-22T07:21:13;3.50;;;1.48;;
52734;SDS011;38631;47.572;10.704;2024-03-22T07:23:38;7.33;;;1.50;;
52734;SDS011;38631;47.572;10.704;2024-03-22T07:26:04;2.60;;;1.23;;
52734;SDS011;38631;47.572;10.704;2024-03-22T07:28:30;2.65;;;1.75;;
52734;SDS011;38631;47.572;10.704;2024-03-22T07:30:56;2.83;;;2.07;;
52734;SDS011;38631;47.572;10.704;2024-03-22T07:33:21;3.70;;;1.57;;
52734;SDS011;38631;47.572;10.704;2024-03-22T07:35:46;3.80;;;1.50;;
52734;SDS011;38631;47.572;10.704;2024-03-22T07:38:11;2.30;;;1.70;;
52734;SDS011;38631;47.572;10.704;2024-03-22T07:40:37;2.60;;;1.43;;
52734;SDS011;38631;47.572;10.704;2024-03-22T07:43:02;3.27;;;1.07;;
52734;SDS011;38631;47.572;10.704;2024-03-22T07:45:36;3.53;;;1.10;;
52734;SDS011;38631;47.572;10.704;2024-03-22T07:48:02;1.60;;;0.93;;
52734;SDS011;38631;47.572;10.704;2024-03-22T07:50:27;2.88;;;1.20;;
52734;SDS011;38631;47.572;10.704;2024-03-22T07:52:52;2.90;;;1.10;;
52734;SDS011;38631;47.572;10.704;2024-03-22T07:55:18;4.78;;;1.38;;
52734;SDS011;38631;47.572;10.704;2024-03-22T07:57:43;2.75;;;1.20;;
52734;SDS011;38631;47.572;10.704;2024-03-22T08:00:18;4.10;;;1.60;;
52734;SDS011;38631;47.572;10.704;2024-03-22T08:02:44;5.38;;;1.30;;
52734;SDS011;38631;47.572;10.704;2024-03-22T08:05:09;4.60;;;1.50;;
52734;SDS011;38631;47.572;10.704;2024-03-22T08:07:34;2.75;;;1.58;;
52734;SDS011;38631;47.572;10.704;2024-03-22T08:09:59;3.47;;;1.40;;
52734;SDS011;38631;47.572;10.704;2024-03-22T08:12:26;3.08;;;1.10;;
52734;SDS011;38631;47.572;10.704;2024-03-22T08:14:54;4.67;;;1.40;;
52734;SDS011;38631;47.572;10.704;2024-03-22T08:17:20;3.85;;;1.55;;
52734;SDS011;38631;47.572;10.704;2024-03-22T08:19:45;2.57;;;1.20;;
52734;SDS011;38631;47.572;10.704;2024-03-22T08:22:10;1.87;;;1.20;;
52734;SDS011;38631;47.572;10.704;2024-03-22T08:24:41;2.10;;;1.10;;
52734;SDS011;38631;47.572;10.704;2024-03-22T08:27:06;2.60;;;0.93;;
52734;SDS011;38631;47.572;10.704;2024-03-22T08:29:31;3.28;;;0.80;;
52734;SDS011;38631;47.572;10.704;2024-03-22T08:31:57;3.83;;;1.30;;
52734;SDS011;38631;47.572;10.704;2024-03-22T08:34:22;5.17;;;1.37;;
52734;SDS011;38631;47.572;10.704;2024-03-22T08:36:47;2.00;;;1.05;;
52734;SDS011;38631;47.572;10.704;2024-03-22T08:39:13;1.50;;;1.07;;
52734;SDS011;38631;47.572;10.704;2024-03-22T08:41:55;3.30;;;0.80;;
52734;SDS011;38631;47.572;10.704;2024-03-22T08:44:20;3.25;;;0.70;;
52734;SDS011;38631;47.572;10.704;2024-03-22T08:46:47;1.40;;;0.87;;
52734;SDS011;38631;47.572;10.704;2024-03-22T08:49:12;1.90;;;0.75;;
52734;SDS011;38631;47.572;10.704;2024-03-22T08:51:37;1.60;;;0.90;;
52734;SDS011;38631;47.572;10.704;2024-03-22T08:54:03;3.23;;;0.77;;
52734;SDS011;38631;47.572;10.704;2024-03-22T08:56:28;2.20;;;1.25;;
52734;SDS011;38631;47.572;10.704;2024-03-22T08:58:54;1.77;;;0.98;;
52734;SDS011;38631;47.572;10.704;2024-03-22T09:01:20;2.05;;;0.73;;
52734;SDS011;38631;47.572;10.704;2024-03-22T09:03:45;2.67;;;1.00;;
52734;SDS011;38631;47.572;10.704;2024-03-22T09:06:11;1.52;;;0.90;;
52734;SDS011;38631;47.572;10.704;2024-03-22T09:08:36;2.20;;;0.80;;
52734;SDS011;38631;47.572;10.704;2024-03-22T09:11:01;1.63;;;0.80;;
52734;SDS011;38631;47.572;10.704;2024-03-22T09:13:27;1.77;;;0.77;;
52734;SDS011;38631;47.572;10.704;2024-03-22T09:15:58;2.53;;;0.80;;
52734;SDS011;38631;47.572;10.704;2024-03-22T09:18:24;1.17;;;0.57;;
52734;SDS011;38631;47.572;10.704;2024-03-22T09:20:49;8.90;;;1.20;;
52734;SDS011;38631;47.572;10.704;2024-03-22T09:23:14;2.57;;;0.80;;
52734;SDS011;38631;47.572;10.704;2024-03-22T09:25:39;1.43;;;0.60;;
52734;SDS011;38631;47.572;10.704;2024-03-22T09:28:05;1.55;;;0.80;;
52734;SDS011;38631;47.572;10.704;2024-03-22T09:30:30;1.58;;;0.90;;
52734;SDS011;38631;47.572;10.704;2024-03-22T09:32:56;1.63;;;0.80;;
52734;SDS011;38631;47.572;10.704;2024-03-22T09:35:21;1.58;;;0.60;;
52734;SDS011;38631;47.572;10.704;2024-03-22T09:37:46;1.47;;;0.80;;
52734;SDS011;38631;47.572;10.704;2024-03-22T09:40:11;2.17;;;0.75;;
52734;SDS011;38631;47.572;10.704;2024-03-22T09:42:37;3.10;;;0.73;;
52734;SDS011;38631;47.572;10.704;2024-03-22T09:45:04;1.55;;;0.60;;
52734;SDS011;38631;47.572;10.704;2024-03-22T09:47:31;3.65;;;0.95;;
52734;SDS011;38631;47.572;10.704;2024-03-22T09:49:59;3.55;;;1.00;;
52734;SDS011;38631;47.572;10.704;2024-03-22T09:52:25;3.60;;;0.95;;
52734;SDS011;38631;47.572;10.704;2024-03-22T09:55:10;1.98;;;1.30;;
52734;SDS011;38631;47.572;10.704;2024-03-22T09:57:38;2.00;;;0.93;;
52734;SDS011;38631;47.572;10.704;2024-03-22T10:00:07;1.45;;;0.88;;
52734;SDS011;38631;47.572;10.704;2024-03-22T10:02:34;3.28;;;0.75;;
52734;SDS011;38631;47.572;10.704;2024-03-22T10:04:59;1.35;;;1.00;;
52734;SDS011;38631;47.572;10.704;2024-03-22T10:07:27;2.40;;;0.80;;
52734;SDS011;38631;47.572;10.704;2024-03-22T10:09:52;1.33;;;0.70;;
52734;SDS011;38631;47.572;10.704;2024-03-22T10:12:18;1.60;;;0.77;;
52734;SDS011;38631;47.572;10.704;2024-03-22T10:14:45;1.60;;;0.80;;
52734;SDS011;38631;47.572;10.704;2024-03-22T10:17:11;1.35;;;0.60;;
52734;SDS011;38631;47.572;10.704;2024-03-22T10:19:36;2.45;;;0.85;;
52734;SDS011;38631;47.572;10.704;2024-03-22T10:24:27;1.05;;;0.93;;
52734;SDS011;38631;47.572;10.704;2024-03-22T10:26:53;2.45;;;0.77;;
52734;SDS011;38631;47.572;10.704;2024-03-22T10:29:19;2.45;;;0.80;;
52734;SDS011;38631;47.572;10.704;2024-03-22T10:31:45;6.78;;;1.30;;
52734;SDS011;38631;47.572;10.704;2024-03-22T10:34:11;3.17;;;1.40;;
52734;SDS011;38631;47.572;10.704;2024-03-22T10:36:38;1.67;;;0.80;;
52734;SDS011;38631;47.572;10.704;2024-03-22T10:39:03;2.53;;;0.80;;
52734;SDS011;38631;47.572;10.704;2024-03-22T10:41:29;3.55;;;0.90;;
52734;SDS011;38631;47.572;10.704;2024-03-22T10:43:54;2.45;;;1.10;;
52734;SDS011;38631;47.572;10.704;2024-03-22T10:46:21;1.02;;;0.80;;
52734;SDS011;38631;47.572;10.704;2024-03-22T10:48:46;1.73;;;0.68;;
52734;SDS011;38631;47.572;10.704;2024-03-22T10:51:12;2.00;;;0.90;;
52734;SDS011;38631;47.572;10.704;2024-03-22T10:53:39;2.33;;;0.88;;
52734;SDS011;38631;47.572;10.704;2024-03-22T10:56:04;2.05;;;1.20;;
52734;SDS011;38631;47.572;10.704;2024-03-22T10:58:31;1.92;;;0.77;;
52734;SDS011;38631;47.572;10.704;2024-03-22T11:01:00;2.35;;;0.77;;
52734;SDS011;38631;47.572;10.704;2024-03-22T11:03:26;0.75;;;0.68;;
52734;SDS011;38631;47.572;10.704;2024-03-22T11:06:01;2.63;;;0.90;;
52734;SDS011;38631;47.572;10.704;2024-03-22T11:08:27;2.58;;;0.80;;
52734;SDS011;38631;47.572;10.704;2024-03-22T11:10:56;1.98;;;0.90;;
52734;SDS011;38631;47.572;10.704;2024-03-22T11:13:21;2.03;;;1.00;;
52734;SDS011;38631;47.572;10.704;2024-03-22T11:15:50;1.20;;;0.90;;
52734;SDS011;38631;47.572;10.704;2024-03-22T11:18:16;1.80;;;1.17;;
52734;SDS011;38631;47.572;10.704;2024-03-22T11:20:44;2.38;;;1.10;;
52734;SDS011;38631;47.572;10.704;2024-03-22T11:23:12;1.33;;;0.90;;
52734;SDS011;38631;47.572;10.704;2024-03-22T11:25:38;2.40;;;1.52;;
52734;SDS011;38631;47.572;10.704;2024-03-22T11:28:03;1.50;;;0.98;;
52734;SDS011;38631;47.572;10.704;2024-03-22T11:30:29;4.57;;;1.73;;
52734;SDS011;38631;47.572;10.704;2024-03-22T11:32:57;2.50;;;1.00;;
52734;SDS011;38631;47.572;10.704;2024-03-22T11:35:23;2.00;;;0.80;;
52734;SDS011;38631;47.572;10.704;2024-03-22T11:37:49;2.40;;;0.82;;
52734;SDS011;38631;47.572;10.704;2024-03-22T11:40:15;3.13;;;0.85;;
52734;SDS011;38631;47.572;10.704;2024-03-22T11:42:41;2.05;;;0.80;;
52734;SDS011;38631;47.572;10.704;2024-03-22T11:45:09;2.88;;;1.20;;
52734;SDS011;38631;47.572;10.704;2024-03-22T11:47:35;1.38;;;0.98;;
52734;SDS011;38631;47.572;10.704;2024-03-22T11:50:01;1.80;;;0.80;;
52734;SDS011;38631;47.572;10.704;2024-03-22T11:52:26;2.88;;;0.98;;
52734;SDS011;38631;47.572;10.704;2024-03-22T11:54:54;1.88;;;1.23;;
52734;SDS011;38631;47.572;10.704;2024-03-22T11:57:22;2.25;;;1.17;;
52734;SDS011;38631;47.572;10.704;2024-03-22T11:59:48;1.98;;;1.10;;
52734;SDS011;38631;47.572;10.704;2024-03-22T12:02:14;1.23;;;0.88;;
52734;SDS011;38631;47.572;10.704;2024-03-22T12:04:42;1.98;;;0.80;;
52734;SDS011;38631;47.572;10.704;2024-03-22T12:07:12;2.17;;;1.10;;
52734;SDS011;38631;47.572;10.704;2024-03-22T12:09:45;4.20;;;0.90;;
52734;SDS011;38631;47.572;10.704;2024-03-22T12:12:11;1.83;;;1.00;;
52734;SDS011;38631;47.572;10.704;2024-03-22T12:14:37;3.70;;;0.90;;
52734;SDS011;38631;47.572;10.704;2024-03-22T12:17:03;2.58;;;1.20;;
52734;SDS011;38631;47.572;10.704;2024-03-22T12:19:29;2.60;;;1.05;;
52734;SDS011;38631;47.572;10.704;2024-03-22T12:21:54;2.55;;;1.00;;
52734;SDS011;38631;47.572;10.704;2024-03-22T12:24:20;1.85;;;1.10;;
52734;SDS011;38631;47.572;10.704;2024-03-22T12:26:46;3.28;;;1.05;;
52734;SDS011;38631;47.572;10.704;2024-03-22T12:29:12;3.53;;;1.05;;
52734;SDS011;38631;47.572;10.704;2024-03-22T12:31:38;1.80;;;1.05;;
52734;SDS011;38631;47.572;10.704;2024-03-22T12:34:03;2.47;;;1.00;;
52734;SDS011;38631;47.572;10.704;2024-03-22T12:36:29;3.83;;;1.38;;
52734;SDS011;38631;47.572;10.704;2024-03-22T12:38:54;2.47;;;0.90;;
52734;SDS011;38631;47.572;10.704;2024-03-22T12:41:19;2.30;;;1.00;;
52734;SDS011;38631;47.572;10.704;2024-03-22T12:43:44;1.70;;;0.95;;
52734;SDS011;38631;47.572;10.704;2024-03-22T12:46:10;1.83;;;1.15;;
52734;SDS011;38631;47.572;10.704;2024-03-22T12:48:36;2.28;;;1.20;;
52734;SDS011;38631;47.572;10.704;2024-03-22T12:51:01;3.67;;;1.20;;
52734;SDS011;38631;47.572;10.704;2024-03-22T12:53:26;2.25;;;1.00;;
52734;SDS011;38631;47.572;10.704;2024-03-22T12:55:52;1.55;;;0.80;;
52734;SDS011;38631;47.572;10.704;2024-03-22T12:58:17;2.00;;;1.05;;
52734;SDS011;38631;47.572;10.704;2024-03-22T13:00:42;2.90;;;1.10;;
52734;SDS011;38631;47.572;10.704;2024-03-22T13:03:13;3.38;;;1.00;;
52734;SDS011;38631;47.572;10.704;2024-03-22T13:08:38;1.60;;;1.00;;
52734;SDS011;38631;47.572;10.704;2024-03-22T13:11:03;2.10;;;0.93;;
52734;SDS011;38631;47.572;10.704;2024-03-22T13:13:29;2.33;;;0.95;;
52734;SDS011;38631;47.572;10.704;2024-03-22T13:15:56;2.17;;;0.90;;
52734;SDS011;38631;47.572;10.704;2024-03-22T13:18:32;2.85;;;1.00;;
52734;SDS011;38631;47.572;10.704;2024-03-22T13:21:01;2.22;;;1.20;;
52734;SDS011;38631;47.572;10.704;2024-03-22T13:23:28;2.65;;;1.00;;
52734;SDS011;38631;47.572;10.704;2024-03-22T13:25:53;2.97;;;0.90;;
52734;SDS011;38631;47.572;10.704;2024-03-22T13:28:20;1.77;;;1.00;;
52734;SDS011;38631;47.572;10.704;2024-03-22T13:30:47;1.92;;;1.27;;
52734;SDS011;38631;47.572;10.704;2024-03-22T13:33:13;1.80;;;0.90;;
52734;SDS011;38631;47.572;10.704;2024-03-22T13:35:56;1.33;;;1.10;;
52734;SDS011;38631;47.572;10.704;2024-03-22T13:38:21;3.75;;;1.15;;
52734;SDS011;38631;47.572;10.704;2024-03-22T13:40:55;1.75;;;0.90;;
52734;SDS011;38631;47.572;10.704;2024-03-22T13:45:56;1.98;;;1.40;;
52734;SDS011;38631;47.572;10.704;2024-03-22T13:48:23;3.95;;;1.40;;
52734;SDS011;38631;47.572;10.704;2024-03-22T13:50:52;2.92;;;1.33;;
52734;SDS011;38631;47.572;10.704;2024-03-22T13:53:21;2.10;;;1.13;;
52734;SDS011;38631;47.572;10.704;2024-03-22T13:55:49;2.90;;;1.30;;
52734;SDS011;38631;47.572;10.704;2024-03-22T13:58:15;2.20;;;1.25;;
52734;SDS011;38631;47.572;10.704;2024-03-22T14:00:40;3.03;;;1.05;;
52734;SDS011;38631;47.572;10.704;2024-03-22T14:03:06;2.05;;;0.90;;
52734;SDS011;38631;47.572;10.704;2024-03-22T14:05:32;7.18;;;1.58;;
52734;SDS011;38631;47.572;10.704;2024-03-22T14:07:58;2.72;;;1.00;;
52734;SDS011;38631;47.572;10.704;2024-03-22T14:10:25;2.42;;;1.00;;
52734;SDS011;38631;47.572;10.704;2024-03-22T14:12:56;2.40;;;1.10;;
52734;SDS011;38631;47.572;10.704;2024-03-22T14:15:21;4.00;;;1.05;;
52734;SDS011;38631;47.572;10.704;2024-03-22T14:17:49;2.17;;;1.08;;
52734;SDS011;38631;47.572;10.704;2024-03-22T14:20:18;3.90;;;1.30;;
52734;SDS011;38631;47.572;10.704;2024-03-22T14:22:43;1.45;;;0.93;;
52734;SDS011;38631;47.572;10.704;2024-03-22T14:25:09;3.65;;;1.40;;
52734;SDS011;38631;47.572;10.704;2024-03-22T14:27:35;2.60;;;1.25;;
52734;SDS011;38631;47.572;10.704;2024-03-22T14:30:04;3.17;;;1.00;;
52734;SDS011;38631;47.572;10.704;2024-03-22T14:32:34;9.82;;;1.73;;
52734;SDS011;38631;47.572;10.704;2024-03-22T14:35:00;4.25;;;1.25;;
52734;SDS011;38631;47.572;10.704;2024-03-22T14:37:41;2.33;;;1.10;;
52734;SDS011;38631;47.572;10.704;2024-03-22T14:40:08;2.10;;;1.25;;
52734;SDS011;38631;47.572;10.704;2024-03-22T14:42:36;2.65;;;1.23;;
52734;SDS011;38631;47.572;10.704;2024-03-22T14:45:01;3.08;;;1.10;;
52734;SDS011;38631;47.572;10.704;2024-03-22T14:47:27;2.00;;;0.90;;
52734;SDS011;38631;47.572;10.704;2024-03-22T14:49:53;2.80;;;1.35;;
52734;SDS011;38631;47.572;10.704;2024-03-22T14:52:20;2.83;;;1.27;;
52734;SDS011;38631;47.572;10.704;2024-03-22T14:54:46;3.67;;;1.42;;
52734;SDS011;38631;47.572;10.704;2024-03-22T14:57:12;2.05;;;1.08;;
52734;SDS011;38631;47.572;10.704;2024-03-22T14:59:37;5.25;;;1.52;;
52734;SDS011;38631;47.572;10.704;2024-03-22T15:02:03;1.95;;;1.13;;